sensor_id;sensor_type;location;lat;lon;timestamp;P1;durP1;ratioP1;P2;durP2;ratioP2
3379;SDS011;1703;51.964;7.642;2022-10-13T00:00:15;13.97;;;10.50;;
3379;SDS011;1703;51.964;7.642;2022-10-13T00:02:44;19.20;;;12.43;;
3379;SDS011;1703;51.964;7.642;2022-10-13T00:05:10;15.73;;;10.47;;
3379;SDS011;1703;51.964;7.642;2022-10-13T00:07:37;16.40;;;11.20;;
3379;SDS011;1703;51.964;7.642;2022-10-13T00:10:04;22.07;;;12.70;;
3379;SDS011;1703;51.964;7.642;2022-10-13T00:12:32;16.90;;;10.33;;
3379;SDS011;1703;51.964;7.642;2022-10-13T00:15:01;25.10;;;11.30;;
3379;SDS011;1703;51.964;7.642;2022-10-13T00:17:30;22.63;;;11.47;;
3379;SDS011;1703;51.964;7.642;2022-10-13T00:19:57;25.03;;;11.70;;
3379;SDS011;1703;51.964;7.642;2022-10-13T00:22:26;18.83;;;11.97;;
3379;SDS011;1703;51.964;7.642;2022-10-13T00:24:53;16.87;;;10.67;;
3379;SDS011;1703;51.964;7.642;2022-10-13T00:27:21;16.50;;;11.30;;
3379;SDS011;1703;51.964;7.642;2022-10-13T00:29:48;23.90;;;13.20;;
3379;SDS011;1703;51.964;7.642;2022-10-13T00:32:15;21.27;;;12.20;;
3379;SDS011;1703;51.964;7.642;2022-10-13T00:34:43;21.87;;;11.67;;
3379;SDS011;1703;51.964;7.642;2022-10-13T00:37:10;19.43;;;11.23;;
3379;SDS011;1703;51.964;7.642;2022-10-13T00:39:36;20.90;;;11.50;;
3379;SDS011;1703;51.964;7.642;2022-10-13T00:42:03;24.17;;;12.47;;
3379;SDS011;1703;51.964;7.642;2022-10-13T00:47:26;23.03;;;12.93;;
3379;SDS011;1703;51.964;7.642;2022-10-13T00:49:57;18.07;;;12.90;;
3379;SDS011;1703;51.964;7.642;2022-10-13T00:52:25;17.20;;;11.37;;
3379;SDS011;1703;51.964;7.642;2022-10-13T00:54:53;18.50;;;12.27;;
3379;SDS011;1703;51.964;7.642;2022-10-13T00:57:23;20.53;;;11.53;;
3379;SDS011;1703;51.964;7.642;2022-10-13T00:59:51;24.77;;;12.70;;
3379;SDS011;1703;51.964;7.642;2022-10-13T01:02:17;20.03;;;12.13;;
3379;SDS011;1703;51.964;7.642;2022-10-13T01:04:45;18.53;;;10.37;;
3379;SDS011;1703;51.964;7.642;2022-10-13T01:07:14;23.70;;;14.20;;
3379;SDS011;1703;51.964;7.642;2022-10-13T01:09:42;17.20;;;9.73;;
3379;SDS011;1703;51.964;7.642;2022-10-13T01:12:14;22.93;;;13.43;;
3379;SDS011;1703;51.964;7.642;2022-10-13T01:14:52;19.53;;;10.10;;
3379;SDS011;1703;51.964;7.642;2022-10-13T01:17:27;18.33;;;12.00;;
3379;SDS011;1703;51.964;7.642;2022-10-13T01:23:28;18.50;;;11.33;;
3379;SDS011;1703;51.964;7.642;2022-10-13T01:29:19;19.63;;;11.93;;
3379;SDS011;1703;51.964;7.642;2022-10-13T01:32:04;18.53;;;12.77;;
3379;SDS011;1703;51.964;7.642;2022-10-13T01:34:37;17.80;;;12.03;;
3379;SDS011;1703;51.964;7.642;2022-10-13T01:37:11;16.53;;;11.57;;
3379;SDS011;1703;51.964;7.642;2022-10-13T01:39:44;27.53;;;12.83;;
3379;SDS011;1703;51.964;7.642;2022-10-13T01:42:18;22.13;;;12.73;;
3379;SDS011;1703;51.964;7.642;2022-10-13T01:44:50;23.60;;;10.80;;
3379;SDS011;1703;51.964;7.642;2022-10-13T01:47:22;17.17;;;11.37;;
3379;SDS011;1703;51.964;7.642;2022-10-13T01:53:39;17.37;;;11.33;;
3379;SDS011;1703;51.964;7.642;2022-10-13T01:56:06;14.50;;;10.97;;
3379;SDS011;1703;51.964;7.642;2022-10-13T01:58:33;13.60;;;11.07;;
3379;SDS011;1703;51.964;7.642;2022-10-13T02:01:04;17.00;;;11.30;;
3379;SDS011;1703;51.964;7.642;2022-10-13T02:03:43;24.10;;;12.40;;
3379;SDS011;1703;51.964;7.642;2022-10-13T02:06:21;22.17;;;12.47;;
3379;SDS011;1703;51.964;7.642;2022-10-13T02:08:54;26.87;;;12.80;;
3379;SDS011;1703;51.964;7.642;2022-10-13T02:11:24;26.07;;;12.93;;
3379;SDS011;1703;51.964;7.642;2022-10-13T02:13:56;25.17;;;12.93;;
3379;SDS011;1703;51.964;7.642;2022-10-13T02:16:27;20.10;;;10.40;;
3379;SDS011;1703;51.964;7.642;2022-10-13T02:19:00;20.40;;;10.33;;
3379;SDS011;1703;51.964;7.642;2022-10-13T02:21:29;21.07;;;13.40;;
3379;SDS011;1703;51.964;7.642;2022-10-13T02:24:00;21.27;;;12.30;;
3379;SDS011;1703;51.964;7.642;2022-10-13T02:26:28;18.13;;;11.73;;
3379;SDS011;1703;51.964;7.642;2022-10-13T02:29:05;15.90;;;11.47;;
3379;SDS011;1703;51.964;7.642;2022-10-13T02:31:33;18.73;;;12.70;;
3379;SDS011;1703;51.964;7.642;2022-10-13T02:34:02;17.90;;;11.90;;
3379;SDS011;1703;51.964;7.642;2022-10-13T02:36:28;21.80;;;12.80;;
3379;SDS011;1703;51.964;7.642;2022-10-13T02:38:55;25.00;;;12.80;;
3379;SDS011;1703;51.964;7.642;2022-10-13T02:41:22;16.60;;;12.23;;
3379;SDS011;1703;51.964;7.642;2022-10-13T02:43:49;22.30;;;12.33;;
3379;SDS011;1703;51.964;7.642;2022-10-13T02:46:16;19.33;;;11.53;;
3379;SDS011;1703;51.964;7.642;2022-10-13T02:48:43;22.90;;;13.30;;
3379;SDS011;1703;51.964;7.642;2022-10-13T02:51:11;26.53;;;12.30;;
3379;SDS011;1703;51.964;7.642;2022-10-13T02:53:38;23.90;;;12.73;;
3379;SDS011;1703;51.964;7.642;2022-10-13T02:56:05;19.43;;;11.50;;
3379;SDS011;1703;51.964;7.642;2022-10-13T02:58:33;17.73;;;12.10;;
3379;SDS011;1703;51.964;7.642;2022-10-13T03:01:06;21.90;;;12.43;;
3379;SDS011;1703;51.964;7.642;2022-10-13T03:03:34;27.57;;;13.30;;
3379;SDS011;1703;51.964;7.642;2022-10-13T03:06:01;21.30;;;13.90;;
3379;SDS011;1703;51.964;7.642;2022-10-13T03:08:30;16.60;;;14.73;;
3379;SDS011;1703;51.964;7.642;2022-10-13T03:10:58;25.33;;;14.80;;
3379;SDS011;1703;51.964;7.642;2022-10-13T03:13:25;19.80;;;12.90;;
3379;SDS011;1703;51.964;7.642;2022-10-13T03:15:58;20.10;;;14.27;;
3379;SDS011;1703;51.964;7.642;2022-10-13T03:18:25;18.93;;;13.03;;
3379;SDS011;1703;51.964;7.642;2022-10-13T03:20:55;20.37;;;13.27;;
3379;SDS011;1703;51.964;7.642;2022-10-13T03:23:23;25.23;;;15.70;;
3379;SDS011;1703;51.964;7.642;2022-10-13T03:25:52;21.37;;;14.43;;
3379;SDS011;1703;51.964;7.642;2022-10-13T03:28:19;16.27;;;12.93;;
3379;SDS011;1703;51.964;7.642;2022-10-13T03:30:49;23.90;;;13.30;;
3379;SDS011;1703;51.964;7.642;2022-10-13T03:33:16;27.00;;;13.13;;
3379;SDS011;1703;51.964;7.642;2022-10-13T03:35:42;19.57;;;13.83;;
3379;SDS011;1703;51.964;7.642;2022-10-13T03:38:09;22.03;;;14.47;;
3379;SDS011;1703;51.964;7.642;2022-10-13T03:40:37;18.70;;;11.00;;
3379;SDS011;1703;51.964;7.642;2022-10-13T03:43:05;26.47;;;13.60;;
3379;SDS011;1703;51.964;7.642;2022-10-13T03:45:32;21.20;;;12.50;;
3379;SDS011;1703;51.964;7.642;2022-10-13T03:47:59;18.87;;;12.67;;
3379;SDS011;1703;51.964;7.642;2022-10-13T03:50:25;24.20;;;14.43;;
3379;SDS011;1703;51.964;7.642;2022-10-13T03:52:53;19.17;;;13.80;;
3379;SDS011;1703;51.964;7.642;2022-10-13T03:55:19;19.03;;;12.30;;
3379;SDS011;1703;51.964;7.642;2022-10-13T03:57:46;17.80;;;11.90;;
3379;SDS011;1703;51.964;7.642;2022-10-13T04:00:15;21.10;;;12.87;;
3379;SDS011;1703;51.964;7.642;2022-10-13T04:02:42;22.47;;;14.10;;
3379;SDS011;1703;51.964;7.642;2022-10-13T04:05:09;16.60;;;12.90;;
3379;SDS011;1703;51.964;7.642;2022-10-13T04:07:36;20.97;;;13.03;;
3379;SDS011;1703;51.964;7.642;2022-10-13T04:10:10;17.90;;;13.30;;
3379;SDS011;1703;51.964;7.642;2022-10-13T04:12:38;21.70;;;12.80;;
3379;SDS011;1703;51.964;7.642;2022-10-13T04:15:05;21.10;;;13.33;;
3379;SDS011;1703;51.964;7.642;2022-10-13T04:17:34;23.57;;;12.70;;
3379;SDS011;1703;51.964;7.642;2022-10-13T04:20:02;28.37;;;13.70;;
3379;SDS011;1703;51.964;7.642;2022-10-13T04:22:29;23.53;;;13.07;;
3379;SDS011;1703;51.964;7.642;2022-10-13T04:24:56;24.60;;;12.80;;
3379;SDS011;1703;51.964;7.642;2022-10-13T04:27:25;26.80;;;12.90;;
3379;SDS011;1703;51.964;7.642;2022-10-13T04:29:52;16.80;;;12.67;;
3379;SDS011;1703;51.964;7.642;2022-10-13T04:32:19;31.30;;;13.17;;
3379;SDS011;1703;51.964;7.642;2022-10-13T04:34:47;27.13;;;14.17;;
3379;SDS011;1703;51.964;7.642;2022-10-13T04:37:14;23.03;;;11.67;;
3379;SDS011;1703;51.964;7.642;2022-10-13T04:39:41;25.83;;;13.17;;
3379;SDS011;1703;51.964;7.642;2022-10-13T04:42:07;17.17;;;13.00;;
3379;SDS011;1703;51.964;7.642;2022-10-13T04:44:36;21.97;;;13.07;;
3379;SDS011;1703;51.964;7.642;2022-10-13T04:47:04;24.40;;;12.83;;
3379;SDS011;1703;51.964;7.642;2022-10-13T04:49:31;19.70;;;13.73;;
3379;SDS011;1703;51.964;7.642;2022-10-13T04:51:59;24.80;;;13.73;;
3379;SDS011;1703;51.964;7.642;2022-10-13T04:54:26;18.87;;;11.87;;
3379;SDS011;1703;51.964;7.642;2022-10-13T04:56:52;22.67;;;13.83;;
3379;SDS011;1703;51.964;7.642;2022-10-13T04:59:19;28.40;;;11.57;;
3379;SDS011;1703;51.964;7.642;2022-10-13T05:01:46;20.90;;;12.77;;
3379;SDS011;1703;51.964;7.642;2022-10-13T05:04:13;28.30;;;14.33;;
3379;SDS011;1703;51.964;7.642;2022-10-13T05:06:40;16.47;;;11.47;;
3379;SDS011;1703;51.964;7.642;2022-10-13T05:09:09;15.83;;;10.93;;
3379;SDS011;1703;51.964;7.642;2022-10-13T05:11:40;24.53;;;13.70;;
3379;SDS011;1703;51.964;7.642;2022-10-13T05:14:07;17.73;;;12.37;;
3379;SDS011;1703;51.964;7.642;2022-10-13T05:16:34;23.37;;;14.63;;
3379;SDS011;1703;51.964;7.642;2022-10-13T05:19:01;21.80;;;14.07;;
3379;SDS011;1703;51.964;7.642;2022-10-13T05:21:28;23.80;;;13.27;;
3379;SDS011;1703;51.964;7.642;2022-10-13T05:23:55;30.37;;;14.23;;
3379;SDS011;1703;51.964;7.642;2022-10-13T05:26:26;23.30;;;12.10;;
3379;SDS011;1703;51.964;7.642;2022-10-13T05:28:56;24.33;;;14.57;;
3379;SDS011;1703;51.964;7.642;2022-10-13T05:31:27;24.33;;;13.40;;
3379;SDS011;1703;51.964;7.642;2022-10-13T05:33:55;22.83;;;12.60;;
3379;SDS011;1703;51.964;7.642;2022-10-13T05:36:23;20.63;;;12.57;;
3379;SDS011;1703;51.964;7.642;2022-10-13T05:38:52;25.80;;;12.50;;
3379;SDS011;1703;51.964;7.642;2022-10-13T05:41:21;23.20;;;13.37;;
3379;SDS011;1703;51.964;7.642;2022-10-13T05:43:51;19.37;;;12.50;;
3379;SDS011;1703;51.964;7.642;2022-10-13T05:46:21;22.13;;;13.93;;
3379;SDS011;1703;51.964;7.642;2022-10-13T05:48:48;24.40;;;11.37;;
3379;SDS011;1703;51.964;7.642;2022-10-13T05:51:15;28.50;;;14.63;;
3379;SDS011;1703;51.964;7.642;2022-10-13T05:53:46;21.47;;;13.30;;
3379;SDS011;1703;51.964;7.642;2022-10-13T05:56:18;21.23;;;13.43;;
3379;SDS011;1703;51.964;7.642;2022-10-13T05:58:49;19.40;;;13.30;;
3379;SDS011;1703;51.964;7.642;2022-10-13T06:01:21;22.43;;;13.83;;
3379;SDS011;1703;51.964;7.642;2022-10-13T06:03:51;38.83;;;14.30;;
3379;SDS011;1703;51.964;7.642;2022-10-13T06:06:20;22.53;;;13.73;;
3379;SDS011;1703;51.964;7.642;2022-10-13T06:08:48;25.10;;;13.80;;
3379;SDS011;1703;51.964;7.642;2022-10-13T06:11:15;21.50;;;12.00;;
3379;SDS011;1703;51.964;7.642;2022-10-13T06:13:42;31.20;;;14.40;;
3379;SDS011;1703;51.964;7.642;2022-10-13T06:16:10;26.50;;;13.73;;
3379;SDS011;1703;51.964;7.642;2022-10-13T06:18:37;25.30;;;13.70;;
3379;SDS011;1703;51.964;7.642;2022-10-13T06:21:03;23.40;;;13.17;;
3379;SDS011;1703;51.964;7.642;2022-10-13T06:23:30;23.70;;;13.97;;
3379;SDS011;1703;51.964;7.642;2022-10-13T06:25:57;21.70;;;13.60;;
3379;SDS011;1703;51.964;7.642;2022-10-13T06:28:25;34.30;;;13.50;;
3379;SDS011;1703;51.964;7.642;2022-10-13T06:30:52;19.30;;;11.90;;
3379;SDS011;1703;51.964;7.642;2022-10-13T06:33:22;22.13;;;12.60;;
3379;SDS011;1703;51.964;7.642;2022-10-13T06:35:49;19.10;;;13.17;;
3379;SDS011;1703;51.964;7.642;2022-10-13T06:38:16;28.07;;;13.47;;
3379;SDS011;1703;51.964;7.642;2022-10-13T06:40:49;26.52;;;14.77;;
3379;SDS011;1703;51.964;7.642;2022-10-13T06:43:16;19.80;;;12.23;;
3379;SDS011;1703;51.964;7.642;2022-10-13T06:45:43;26.67;;;12.50;;
3379;SDS011;1703;51.964;7.642;2022-10-13T06:48:09;28.87;;;13.70;;
3379;SDS011;1703;51.964;7.642;2022-10-13T06:50:38;21.77;;;12.67;;
3379;SDS011;1703;51.964;7.642;2022-10-13T06:53:04;24.57;;;14.03;;
3379;SDS011;1703;51.964;7.642;2022-10-13T06:55:31;20.53;;;12.43;;
3379;SDS011;1703;51.964;7.642;2022-10-13T06:57:58;27.03;;;12.87;;
3379;SDS011;1703;51.964;7.642;2022-10-13T07:00:25;29.63;;;12.83;;
3379;SDS011;1703;51.964;7.642;2022-10-13T07:02:51;34.27;;;14.97;;
3379;SDS011;1703;51.964;7.642;2022-10-13T07:05:18;24.03;;;14.27;;
3379;SDS011;1703;51.964;7.642;2022-10-13T07:07:46;26.87;;;11.67;;
3379;SDS011;1703;51.964;7.642;2022-10-13T07:10:13;25.98;;;16.17;;
3379;SDS011;1703;51.964;7.642;2022-10-13T07:12:40;22.50;;;15.10;;
3379;SDS011;1703;51.964;7.642;2022-10-13T07:15:07;25.17;;;12.83;;
3379;SDS011;1703;51.964;7.642;2022-10-13T07:17:34;20.97;;;13.40;;
3379;SDS011;1703;51.964;7.642;2022-10-13T07:20:01;20.33;;;12.07;;
3379;SDS011;1703;51.964;7.642;2022-10-13T07:22:28;18.87;;;12.43;;
3379;SDS011;1703;51.964;7.642;2022-10-13T07:24:57;21.83;;;12.93;;
3379;SDS011;1703;51.964;7.642;2022-10-13T07:27:24;30.67;;;12.53;;
3379;SDS011;1703;51.964;7.642;2022-10-13T07:29:51;21.13;;;13.43;;
3379;SDS011;1703;51.964;7.642;2022-10-13T07:32:17;21.10;;;13.30;;
3379;SDS011;1703;51.964;7.642;2022-10-13T07:34:44;19.63;;;12.37;;
3379;SDS011;1703;51.964;7.642;2022-10-13T07:37:11;23.60;;;12.43;;
3379;SDS011;1703;51.964;7.642;2022-10-13T07:39:38;22.53;;;12.60;;
3379;SDS011;1703;51.964;7.642;2022-10-13T07:42:06;23.37;;;12.60;;
3379;SDS011;1703;51.964;7.642;2022-10-13T07:44:33;16.77;;;13.70;;
3379;SDS011;1703;51.964;7.642;2022-10-13T07:46:59;16.53;;;11.60;;
3379;SDS011;1703;51.964;7.642;2022-10-13T07:49:26;23.73;;;13.30;;
3379;SDS011;1703;51.964;7.642;2022-10-13T07:51:53;28.23;;;12.30;;
3379;SDS011;1703;51.964;7.642;2022-10-13T07:54:20;17.17;;;11.50;;
3379;SDS011;1703;51.964;7.642;2022-10-13T07:56:49;36.93;;;14.23;;
3379;SDS011;1703;51.964;7.642;2022-10-13T07:59:17;20.73;;;12.73;;
3379;SDS011;1703;51.964;7.642;2022-10-13T08:01:44;20.90;;;13.13;;
3379;SDS011;1703;51.964;7.642;2022-10-13T08:04:11;22.23;;;12.47;;
3379;SDS011;1703;51.964;7.642;2022-10-13T08:06:38;18.20;;;11.67;;
3379;SDS011;1703;51.964;7.642;2022-10-13T08:09:07;24.70;;;13.70;;
3379;SDS011;1703;51.964;7.642;2022-10-13T08:11:34;23.33;;;11.93;;
3379;SDS011;1703;51.964;7.642;2022-10-13T08:14:01;19.80;;;12.20;;
3379;SDS011;1703;51.964;7.642;2022-10-13T08:16:30;23.17;;;13.07;;
3379;SDS011;1703;51.964;7.642;2022-10-13T08:18:57;26.60;;;12.23;;
3379;SDS011;1703;51.964;7.642;2022-10-13T08:21:25;19.83;;;11.90;;
3379;SDS011;1703;51.964;7.642;2022-10-13T08:23:54;17.27;;;12.83;;
3379;SDS011;1703;51.964;7.642;2022-10-13T08:26:24;22.03;;;11.93;;
3379;SDS011;1703;51.964;7.642;2022-10-13T08:28:52;18.90;;;11.10;;
3379;SDS011;1703;51.964;7.642;2022-10-13T08:31:19;17.80;;;10.90;;
3379;SDS011;1703;51.964;7.642;2022-10-13T08:33:47;16.67;;;11.17;;
3379;SDS011;1703;51.964;7.642;2022-10-13T08:36:17;18.57;;;10.90;;
3379;SDS011;1703;51.964;7.642;2022-10-13T08:38:44;21.40;;;10.90;;
3379;SDS011;1703;51.964;7.642;2022-10-13T08:41:15;18.03;;;10.70;;
3379;SDS011;1703;51.964;7.642;2022-10-13T08:43:49;22.70;;;12.13;;
3379;SDS011;1703;51.964;7.642;2022-10-13T08:46:21;19.27;;;11.77;;
3379;SDS011;1703;51.964;7.642;2022-10-13T08:48:52;24.93;;;13.40;;
3379;SDS011;1703;51.964;7.642;2022-10-13T08:51:20;19.20;;;10.80;;
3379;SDS011;1703;51.964;7.642;2022-10-13T08:53:46;17.43;;;10.90;;
3379;SDS011;1703;51.964;7.642;2022-10-13T08:56:14;15.97;;;11.67;;
3379;SDS011;1703;51.964;7.642;2022-10-13T08:58:45;21.80;;;12.37;;
3379;SDS011;1703;51.964;7.642;2022-10-13T09:01:14;22.50;;;10.57;;
3379;SDS011;1703;51.964;7.642;2022-10-13T09:03:47;16.70;;;10.67;;
3379;SDS011;1703;51.964;7.642;2022-10-13T09:06:19;18.27;;;10.20;;
3379;SDS011;1703;51.964;7.642;2022-10-13T09:08:54;13.63;;;10.07;;
3379;SDS011;1703;51.964;7.642;2022-10-13T09:11:24;15.63;;;10.40;;
3379;SDS011;1703;51.964;7.642;2022-10-13T09:13:53;30.67;;;9.33;;
3379;SDS011;1703;51.964;7.642;2022-10-13T09:16:25;22.00;;;11.80;;
3379;SDS011;1703;51.964;7.642;2022-10-13T09:18:53;23.60;;;11.77;;
3379;SDS011;1703;51.964;7.642;2022-10-13T09:21:22;14.07;;;9.90;;
3379;SDS011;1703;51.964;7.642;2022-10-13T09:23:51;18.37;;;10.20;;
3379;SDS011;1703;51.964;7.642;2022-10-13T09:26:20;14.63;;;11.63;;
3379;SDS011;1703;51.964;7.642;2022-10-13T09:28:49;20.70;;;10.73;;
3379;SDS011;1703;51.964;7.642;2022-10-13T09:31:18;19.13;;;12.33;;
3379;SDS011;1703;51.964;7.642;2022-10-13T09:33:55;23.40;;;10.83;;
3379;SDS011;1703;51.964;7.642;2022-10-13T09:36:24;19.23;;;11.03;;
3379;SDS011;1703;51.964;7.642;2022-10-13T09:39:06;16.07;;;10.30;;
3379;SDS011;1703;51.964;7.642;2022-10-13T09:41:37;15.23;;;10.33;;
3379;SDS011;1703;51.964;7.642;2022-10-13T09:44:10;19.53;;;11.83;;
3379;SDS011;1703;51.964;7.642;2022-10-13T09:46:44;17.23;;;11.60;;
3379;SDS011;1703;51.964;7.642;2022-10-13T09:49:30;22.77;;;11.50;;
3379;SDS011;1703;51.964;7.642;2022-10-13T09:52:05;16.70;;;10.57;;
3379;SDS011;1703;51.964;7.642;2022-10-13T09:54:42;17.90;;;11.20;;
3379;SDS011;1703;51.964;7.642;2022-10-13T09:57:13;28.53;;;12.60;;
3379;SDS011;1703;51.964;7.642;2022-10-13T09:59:47;19.43;;;11.33;;
3379;SDS011;1703;51.964;7.642;2022-10-13T10:02:21;16.57;;;11.00;;
3379;SDS011;1703;51.964;7.642;2022-10-13T10:04:53;23.47;;;10.20;;
3379;SDS011;1703;51.964;7.642;2022-10-13T10:07:26;20.07;;;10.73;;
3379;SDS011;1703;51.964;7.642;2022-10-13T10:09:57;15.40;;;9.93;;
3379;SDS011;1703;51.964;7.642;2022-10-13T10:12:29;17.80;;;10.87;;
3379;SDS011;1703;51.964;7.642;2022-10-13T10:15:01;15.63;;;9.43;;
3379;SDS011;1703;51.964;7.642;2022-10-13T10:17:29;21.90;;;11.00;;
3379;SDS011;1703;51.964;7.642;2022-10-13T10:20:05;20.10;;;12.17;;
3379;SDS011;1703;51.964;7.642;2022-10-13T10:22:50;16.90;;;10.37;;
3379;SDS011;1703;51.964;7.642;2022-10-13T10:25:25;15.37;;;11.20;;
3379;SDS011;1703;51.964;7.642;2022-10-13T10:28:09;19.90;;;10.70;;
3379;SDS011;1703;51.964;7.642;2022-10-13T10:30:49;16.30;;;12.30;;
3379;SDS011;1703;51.964;7.642;2022-10-13T10:33:25;18.83;;;9.60;;
3379;SDS011;1703;51.964;7.642;2022-10-13T10:36:00;15.60;;;10.40;;
3379;SDS011;1703;51.964;7.642;2022-10-13T10:38:34;21.23;;;11.50;;
3379;SDS011;1703;51.964;7.642;2022-10-13T10:41:11;30.00;;;12.13;;
3379;SDS011;1703;51.964;7.642;2022-10-13T10:43:48;16.53;;;10.73;;
3379;SDS011;1703;51.964;7.642;2022-10-13T10:46:19;13.80;;;10.33;;
3379;SDS011;1703;51.964;7.642;2022-10-13T10:48:49;18.53;;;10.80;;
3379;SDS011;1703;51.964;7.642;2022-10-13T10:51:19;26.30;;;11.97;;
3379;SDS011;1703;51.964;7.642;2022-10-13T10:53:56;23.60;;;12.37;;
3379;SDS011;1703;51.964;7.642;2022-10-13T10:56:35;19.07;;;11.87;;
3379;SDS011;1703;51.964;7.642;2022-10-13T10:59:15;20.30;;;11.10;;
3379;SDS011;1703;51.964;7.642;2022-10-13T11:01:54;21.70;;;10.83;;
3379;SDS011;1703;51.964;7.642;2022-10-13T11:04:32;19.57;;;10.20;;
3379;SDS011;1703;51.964;7.642;2022-10-13T11:07:07;16.73;;;10.57;;
3379;SDS011;1703;51.964;7.642;2022-10-13T11:12:46;20.27;;;12.33;;
3379;SDS011;1703;51.964;7.642;2022-10-13T11:15:28;19.70;;;12.00;;
3379;SDS011;1703;51.964;7.642;2022-10-13T11:21:05;13.87;;;9.20;;
3379;SDS011;1703;51.964;7.642;2022-10-13T11:23:33;16.30;;;10.07;;
3379;SDS011;1703;51.964;7.642;2022-10-13T11:29:16;23.67;;;10.20;;
3379;SDS011;1703;51.964;7.642;2022-10-13T11:32:10;14.20;;;10.40;;
3379;SDS011;1703;51.964;7.642;2022-10-13T11:35:21;17.00;;;9.70;;
3379;SDS011;1703;51.964;7.642;2022-10-13T11:37:52;15.47;;;9.77;;
3379;SDS011;1703;51.964;7.642;2022-10-13T11:40:56;24.77;;;9.50;;
3379;SDS011;1703;51.964;7.642;2022-10-13T11:43:40;13.40;;;8.80;;
3379;SDS011;1703;51.964;7.642;2022-10-13T11:46:26;12.53;;;8.10;;
3379;SDS011;1703;51.964;7.642;2022-10-13T11:49:08;15.90;;;9.50;;
3379;SDS011;1703;51.964;7.642;2022-10-13T11:52:05;16.63;;;9.37;;
3379;SDS011;1703;51.964;7.642;2022-10-13T11:54:52;20.93;;;9.27;;
3379;SDS011;1703;51.964;7.642;2022-10-13T11:57:23;18.57;;;8.83;;
3379;SDS011;1703;51.964;7.642;2022-10-13T11:59:51;13.20;;;9.00;;
3379;SDS011;1703;51.964;7.642;2022-10-13T12:02:25;16.87;;;8.53;;
3379;SDS011;1703;51.964;7.642;2022-10-13T12:05:06;24.97;;;8.50;;
3379;SDS011;1703;51.964;7.642;2022-10-13T12:07:46;16.13;;;8.90;;
3379;SDS011;1703;51.964;7.642;2022-10-13T12:10:15;34.07;;;9.43;;
3379;SDS011;1703;51.964;7.642;2022-10-13T12:12:46;26.03;;;7.80;;
3379;SDS011;1703;51.964;7.642;2022-10-13T12:15:25;14.10;;;8.07;;
3379;SDS011;1703;51.964;7.642;2022-10-13T12:17:54;16.20;;;7.17;;
3379;SDS011;1703;51.964;7.642;2022-10-13T12:20:24;12.93;;;7.30;;
3379;SDS011;1703;51.964;7.642;2022-10-13T12:22:53;18.83;;;7.73;;
3379;SDS011;1703;51.964;7.642;2022-10-13T12:25:21;11.50;;;7.37;;
3379;SDS011;1703;51.964;7.642;2022-10-13T12:27:56;15.53;;;8.83;;
3379;SDS011;1703;51.964;7.642;2022-10-13T12:30:25;11.03;;;7.20;;
3379;SDS011;1703;51.964;7.642;2022-10-13T12:32:55;9.10;;;7.70;;
3379;SDS011;1703;51.964;7.642;2022-10-13T12:35:26;7.93;;;6.37;;
3379;SDS011;1703;51.964;7.642;2022-10-13T12:37:54;16.53;;;6.70;;
3379;SDS011;1703;51.964;7.642;2022-10-13T12:40:22;13.93;;;7.50;;
3379;SDS011;1703;51.964;7.642;2022-10-13T12:42:52;14.27;;;7.20;;
3379;SDS011;1703;51.964;7.642;2022-10-13T12:45:20;12.87;;;7.53;;
3379;SDS011;1703;51.964;7.642;2022-10-13T12:47:49;12.13;;;7.67;;
3379;SDS011;1703;51.964;7.642;2022-10-13T12:50:21;13.80;;;7.10;;
3379;SDS011;1703;51.964;7.642;2022-10-13T12:53:03;16.00;;;6.70;;
3379;SDS011;1703;51.964;7.642;2022-10-13T12:55:44;14.97;;;6.83;;
3379;SDS011;1703;51.964;7.642;2022-10-13T12:58:22;10.87;;;7.90;;
3379;SDS011;1703;51.964;7.642;2022-10-13T13:00:59;10.53;;;7.07;;
3379;SDS011;1703;51.964;7.642;2022-10-13T13:03:31;21.73;;;8.23;;
3379;SDS011;1703;51.964;7.642;2022-10-13T13:06:19;13.90;;;7.40;;
3379;SDS011;1703;51.964;7.642;2022-10-13T13:12:01;10.90;;;7.00;;
3379;SDS011;1703;51.964;7.642;2022-10-13T13:14:36;15.17;;;6.60;;
3379;SDS011;1703;51.964;7.642;2022-10-13T13:17:05;9.50;;;6.30;;
3379;SDS011;1703;51.964;7.642;2022-10-13T13:19:35;18.30;;;7.07;;
3379;SDS011;1703;51.964;7.642;2022-10-13T13:22:04;13.60;;;6.57;;
3379;SDS011;1703;51.964;7.642;2022-10-13T13:24:31;14.13;;;5.70;;
3379;SDS011;1703;51.964;7.642;2022-10-13T13:27:01;10.67;;;7.03;;
3379;SDS011;1703;51.964;7.642;2022-10-13T13:29:40;17.47;;;7.70;;
3379;SDS011;1703;51.964;7.642;2022-10-13T13:32:08;10.50;;;6.27;;
3379;SDS011;1703;51.964;7.642;2022-10-13T13:34:37;15.20;;;7.37;;
3379;SDS011;1703;51.964;7.642;2022-10-13T13:37:05;18.57;;;7.23;;
3379;SDS011;1703;51.964;7.642;2022-10-13T13:39:37;12.03;;;6.17;;
3379;SDS011;1703;51.964;7.642;2022-10-13T13:42:04;11.97;;;6.30;;
3379;SDS011;1703;51.964;7.642;2022-10-13T13:44:34;18.90;;;7.43;;
3379;SDS011;1703;51.964;7.642;2022-10-13T13:47:01;11.77;;;7.10;;
3379;SDS011;1703;51.964;7.642;2022-10-13T13:49:28;14.10;;;7.80;;
3379;SDS011;1703;51.964;7.642;2022-10-13T13:51:55;13.70;;;7.63;;
3379;SDS011;1703;51.964;7.642;2022-10-13T13:54:23;15.03;;;6.57;;
3379;SDS011;1703;51.964;7.642;2022-10-13T13:56:50;17.90;;;8.40;;
3379;SDS011;1703;51.964;7.642;2022-10-13T13:59:17;19.47;;;8.60;;
3379;SDS011;1703;51.964;7.642;2022-10-13T14:01:44;13.73;;;8.53;;
3379;SDS011;1703;51.964;7.642;2022-10-13T14:04:13;22.47;;;8.60;;
3379;SDS011;1703;51.964;7.642;2022-10-13T14:06:40;13.03;;;8.80;;
3379;SDS011;1703;51.964;7.642;2022-10-13T14:09:07;13.23;;;9.20;;
3379;SDS011;1703;51.964;7.642;2022-10-13T14:11:38;14.07;;;9.77;;
3379;SDS011;1703;51.964;7.642;2022-10-13T14:14:04;12.57;;;8.70;;
3379;SDS011;1703;51.964;7.642;2022-10-13T14:16:31;14.67;;;8.30;;
3379;SDS011;1703;51.964;7.642;2022-10-13T14:19:02;13.37;;;8.40;;
3379;SDS011;1703;51.964;7.642;2022-10-13T14:21:28;20.07;;;9.90;;
3379;SDS011;1703;51.964;7.642;2022-10-13T14:23:55;14.27;;;9.87;;
3379;SDS011;1703;51.964;7.642;2022-10-13T14:26:22;19.47;;;11.77;;
3379;SDS011;1703;51.964;7.642;2022-10-13T14:28:50;18.03;;;10.80;;
3379;SDS011;1703;51.964;7.642;2022-10-13T14:31:17;17.17;;;9.60;;
3379;SDS011;1703;51.964;7.642;2022-10-13T14:33:45;16.50;;;8.90;;
3379;SDS011;1703;51.964;7.642;2022-10-13T14:36:12;17.67;;;9.30;;
3379;SDS011;1703;51.964;7.642;2022-10-13T14:38:38;19.10;;;10.73;;
3379;SDS011;1703;51.964;7.642;2022-10-13T14:41:05;18.03;;;9.00;;
3379;SDS011;1703;51.964;7.642;2022-10-13T14:43:32;18.40;;;10.40;;
3379;SDS011;1703;51.964;7.642;2022-10-13T14:46:01;16.80;;;9.20;;
3379;SDS011;1703;51.964;7.642;2022-10-13T14:48:29;23.13;;;10.17;;
3379;SDS011;1703;51.964;7.642;2022-10-13T14:50:56;18.80;;;10.40;;
3379;SDS011;1703;51.964;7.642;2022-10-13T14:53:23;13.70;;;11.13;;
3379;SDS011;1703;51.964;7.642;2022-10-13T14:55:51;18.10;;;11.40;;
3379;SDS011;1703;51.964;7.642;2022-10-13T14:58:18;15.63;;;10.23;;
3379;SDS011;1703;51.964;7.642;2022-10-13T15:00:44;11.90;;;9.53;;
3379;SDS011;1703;51.964;7.642;2022-10-13T15:03:13;14.90;;;10.60;;
3379;SDS011;1703;51.964;7.642;2022-10-13T15:05:39;18.70;;;11.40;;
3379;SDS011;1703;51.964;7.642;2022-10-13T15:08:06;17.23;;;9.80;;
3379;SDS011;1703;51.964;7.642;2022-10-13T15:10:33;15.97;;;10.70;;
3379;SDS011;1703;51.964;7.642;2022-10-13T15:13:01;19.90;;;9.53;;
3379;SDS011;1703;51.964;7.642;2022-10-13T15:15:28;17.90;;;10.37;;
3379;SDS011;1703;51.964;7.642;2022-10-13T15:17:56;20.10;;;11.43;;
3379;SDS011;1703;51.964;7.642;2022-10-13T15:20:32;49.83;;;30.20;;
3379;SDS011;1703;51.964;7.642;2022-10-13T15:22:58;21.30;;;13.53;;
3379;SDS011;1703;51.964;7.642;2022-10-13T15:25:25;18.60;;;10.80;;
3379;SDS011;1703;51.964;7.642;2022-10-13T15:27:52;21.17;;;10.83;;
3379;SDS011;1703;51.964;7.642;2022-10-13T15:30:19;16.77;;;10.00;;
3379;SDS011;1703;51.964;7.642;2022-10-13T15:32:47;22.97;;;10.70;;